sensor_id;sensor_type;location;lat;lon;timestamp;pressure;altitude;pressure_sealevel;temperature
64904;BMP280;51401;48.882;12.598;2023-07-20T00:00:11;90921.69;;;20.31
64904;BMP280;51401;48.882;12.598;2023-07-20T00:02:39;90881.41;;;20.25
64904;BMP280;51401;48.882;12.598;2023-07-20T00:05:04;90782.97;;;20.28
64904;BMP280;51401;48.882;12.598;2023-07-20T00:07:30;90824.84;;;20.41
64904;BMP280;51401;48.882;12.598;2023-07-20T00:09:55;90844.31;;;20.34
64904;BMP280;51401;48.882;12.598;2023-07-20T00:12:20;90807.56;;;20.36
64904;BMP280;51401;48.882;12.598;2023-07-20T00:14:46;90837.94;;;20.39
64904;BMP280;51401;48.882;12.598;2023-07-20T00:17:11;90841.97;;;20.42
64904;BMP280;51401;48.882;12.598;2023-07-20T00:19:36;90819.47;;;20.37
64904;BMP280;51401;48.882;12.598;2023-07-20T00:22:02;90893.41;;;20.30
64904;BMP280;51401;48.882;12.598;2023-07-20T00:24:30;90860.31;;;20.23
64904;BMP280;51401;48.882;12.598;2023-07-20T00:26:55;90804.66;;;20.28
64904;BMP280;51401;48.882;12.598;2023-07-20T00:29:20;90835.34;;;20.24
64904;BMP280;51401;48.882;12.598;2023-07-20T00:31:46;90803.25;;;20.25
64904;BMP280;51401;48.882;12.598;2023-07-20T00:34:11;90759.03;;;20.20
64904;BMP280;51401;48.882;12.598;2023-07-20T00:36:36;90736.75;;;20.21
64904;BMP280;51401;48.882;12.598;2023-07-20T00:39:02;90666.28;;;20.16
64904;BMP280;51401;48.882;12.598;2023-07-20T00:41:28;90649.75;;;20.13
64904;BMP280;51401;48.882;12.598;2023-07-20T00:43:54;90606.25;;;20.08
64904;BMP280;51401;48.882;12.598;2023-07-20T00:46:23;90610.91;;;20.10
64904;BMP280;51401;48.882;12.598;2023-07-20T00:48:49;90615.41;;;20.07
64904;BMP280;51401;48.882;12.598;2023-07-20T00:51:14;90612.84;;;20.09
64904;BMP280;51401;48.882;12.598;2023-07-20T00:53:40;90598.25;;;20.04
64904;BMP280;51401;48.882;12.598;2023-07-20T00:56:06;90566.00;;;20.02
64904;BMP280;51401;48.882;12.598;2023-07-20T00:58:33;90574.94;;;19.95
64904;BMP280;51401;48.882;12.598;2023-07-20T01:00:58;90580.78;;;19.94
64904;BMP280;51401;48.882;12.598;2023-07-20T01:03:23;90542.63;;;19.91
64904;BMP280;51401;48.882;12.598;2023-07-20T01:06:06;90503.84;;;19.89
64904;BMP280;51401;48.882;12.598;2023-07-20T01:08:58;90427.16;;;19.93
64904;BMP280;51401;48.882;12.598;2023-07-20T01:14:14;90332.88;;;19.79
64904;BMP280;51401;48.882;12.598;2023-07-20T01:16:39;90294.53;;;19.71
64904;BMP280;51401;48.882;12.598;2023-07-20T01:19:04;90171.63;;;19.63
64904;BMP280;51401;48.882;12.598;2023-07-20T01:21:40;90167.69;;;19.62
64904;BMP280;51401;48.882;12.598;2023-07-20T01:24:18;90108.31;;;19.51
64904;BMP280;51401;48.882;12.598;2023-07-20T01:27:06;90039.91;;;19.44
64904;BMP280;51401;48.882;12.598;2023-07-20T01:30:14;90026.00;;;19.39
64904;BMP280;51401;48.882;12.598;2023-07-20T01:32:42;89951.06;;;19.32
64904;BMP280;51401;48.882;12.598;2023-07-20T01:35:09;89854.69;;;19.33
64904;BMP280;51401;48.882;12.598;2023-07-20T01:37:37;89922.88;;;19.33
64904;BMP280;51401;48.882;12.598;2023-07-20T01:40:03;89955.63;;;19.32
64904;BMP280;51401;48.882;12.598;2023-07-20T01:42:29;89918.38;;;19.35
64904;BMP280;51401;48.882;12.598;2023-07-20T01:44:54;89822.50;;;19.30
64904;BMP280;51401;48.882;12.598;2023-07-20T01:47:20;89762.75;;;19.27
64904;BMP280;51401;48.882;12.598;2023-07-20T01:49:45;89723.34;;;19.23
64904;BMP280;51401;48.882;12.598;2023-07-20T01:52:10;89657.50;;;19.11
64904;BMP280;51401;48.882;12.598;2023-07-20T01:54:36;89555.28;;;19.11
64904;BMP280;51401;48.882;12.598;2023-07-20T01:57:01;89534.94;;;19.08
64904;BMP280;51401;48.882;12.598;2023-07-20T01:59:26;89409.13;;;19.08
64904;BMP280;51401;48.882;12.598;2023-07-20T02:01:52;89387.50;;;19.09
64904;BMP280;51401;48.882;12.598;2023-07-20T02:04:17;89424.91;;;19.12
64904;BMP280;51401;48.882;12.598;2023-07-20T02:06:43;89379.75;;;19.15
64904;BMP280;51401;48.882;12.598;2023-07-20T02:09:08;89432.97;;;19.21
64904;BMP280;51401;48.882;12.598;2023-07-20T02:11:33;89449.34;;;19.22
64904;BMP280;51401;48.882;12.598;2023-07-20T02:13:58;89486.06;;;19.22
64904;BMP280;51401;48.882;12.598;2023-07-20T02:16:24;89455.91;;;19.23
64904;BMP280;51401;48.882;12.598;2023-07-20T02:18:49;89372.03;;;19.23
64904;BMP280;51401;48.882;12.598;2023-07-20T02:21:14;89302.53;;;19.20
64904;BMP280;51401;48.882;12.598;2023-07-20T02:23:40;89293.97;;;19.17
64904;BMP280;51401;48.882;12.598;2023-07-20T02:26:05;89259.19;;;19.17
64904;BMP280;51401;48.882;12.598;2023-07-20T02:28:30;89181.78;;;19.10
64904;BMP280;51401;48.882;12.598;2023-07-20T02:30:56;89168.63;;;19.08
64904;BMP280;51401;48.882;12.598;2023-07-20T02:33:21;89146.19;;;18.97
64904;BMP280;51401;48.882;12.598;2023-07-20T02:35:46;88980.31;;;18.85
64904;BMP280;51401;48.882;12.598;2023-07-20T02:38:12;88779.13;;;18.72
64904;BMP280;51401;48.882;12.598;2023-07-20T02:40:37;88581.41;;;18.71
64904;BMP280;51401;48.882;12.598;2023-07-20T02:43:02;88459.63;;;18.68
64904;BMP280;51401;48.882;12.598;2023-07-20T02:45:28;88417.72;;;18.70
64904;BMP280;51401;48.882;12.598;2023-07-20T02:47:53;88413.84;;;18.75
64904;BMP280;51401;48.882;12.598;2023-07-20T02:50:18;88509.38;;;18.70
64904;BMP280;51401;48.882;12.598;2023-07-20T02:52:44;88356.81;;;18.58
64904;BMP280;51401;48.882;12.598;2023-07-20T02:55:09;88132.34;;;18.50
64904;BMP280;51401;48.882;12.598;2023-07-20T02:57:35;87927.56;;;18.46
64904;BMP280;51401;48.882;12.598;2023-07-20T03:00:00;87716.25;;;18.40
64904;BMP280;51401;48.882;12.598;2023-07-20T03:02:26;87506.91;;;18.44
64904;BMP280;51401;48.882;12.598;2023-07-20T03:04:51;87438.31;;;18.38
64904;BMP280;51401;48.882;12.598;2023-07-20T03:07:16;87159.72;;;18.35
64904;BMP280;51401;48.882;12.598;2023-07-20T03:09:42;86883.06;;;18.39
64904;BMP280;51401;48.882;12.598;2023-07-20T03:12:08;86776.50;;;18.38
64904;BMP280;51401;48.882;12.598;2023-07-20T03:14:34;86675.16;;;18.36
64904;BMP280;51401;48.882;12.598;2023-07-20T03:16:59;86617.63;;;18.36
64904;BMP280;51401;48.882;12.598;2023-07-20T03:19:24;86512.38;;;18.36
64904;BMP280;51401;48.882;12.598;2023-07-20T03:21:50;86406.66;;;18.29
64904;BMP280;51401;48.882;12.598;2023-07-20T03:24:16;86437.31;;;18.31
64904;BMP280;51401;48.882;12.598;2023-07-20T03:26:41;86260.94;;;18.28
64904;BMP280;51401;48.882;12.598;2023-07-20T03:29:06;86202.63;;;18.31
64904;BMP280;51401;48.882;12.598;2023-07-20T03:31:32;86279.53;;;18.40
64904;BMP280;51401;48.882;12.598;2023-07-20T03:33:57;86265.94;;;18.36
64904;BMP280;51401;48.882;12.598;2023-07-20T03:36:22;86163.94;;;18.36
64904;BMP280;51401;48.882;12.598;2023-07-20T03:38:48;86114.13;;;18.39
64904;BMP280;51401;48.882;12.598;2023-07-20T03:41:13;86120.81;;;18.35
64904;BMP280;51401;48.882;12.598;2023-07-20T03:43:40;86101.00;;;18.41
64904;BMP280;51401;48.882;12.598;2023-07-20T03:46:06;86081.34;;;18.42
64904;BMP280;51401;48.882;12.598;2023-07-20T03:48:32;86090.69;;;18.37
64904;BMP280;51401;48.882;12.598;2023-07-20T03:50:58;86121.81;;;18.45
64904;BMP280;51401;48.882;12.598;2023-07-20T03:53:25;86050.63;;;18.43
64904;BMP280;51401;48.882;12.598;2023-07-20T03:55:51;86005.81;;;18.53
64904;BMP280;51401;48.882;12.598;2023-07-20T03:58:18;86113.28;;;18.67
64904;BMP280;51401;48.882;12.598;2023-07-20T04:00:49;86307.88;;;18.78
64904;BMP280;51401;48.882;12.598;2023-07-20T04:03:15;86481.91;;;18.77
64904;BMP280;51401;48.882;12.598;2023-07-20T04:05:41;86570.59;;;18.89
64904;BMP280;51401;48.882;12.598;2023-07-20T04:08:07;86784.50;;;18.92
64904;BMP280;51401;48.882;12.598;2023-07-20T04:10:32;86928.59;;;18.86
64904;BMP280;51401;48.882;12.598;2023-07-20T04:12:58;86872.84;;;18.91
64904;BMP280;51401;48.882;12.598;2023-07-20T04:15:23;86926.59;;;18.89
64904;BMP280;51401;48.882;12.598;2023-07-20T04:17:48;86865.13;;;18.86
64904;BMP280;51401;48.882;12.598;2023-07-20T04:20:14;86814.69;;;18.87
64904;BMP280;51401;48.882;12.598;2023-07-20T04:22:39;86723.88;;;18.82
64904;BMP280;51401;48.882;12.598;2023-07-20T04:25:05;86837.63;;;18.87
64904;BMP280;51401;48.882;12.598;2023-07-20T04:27:30;86708.06;;;18.86
64904;BMP280;51401;48.882;12.598;2023-07-20T04:29:58;86700.13;;;18.90
64904;BMP280;51401;48.882;12.598;2023-07-20T04:32:25;86731.31;;;18.99
64904;BMP280;51401;48.882;12.598;2023-07-20T04:34:50;86891.03;;;18.99
64904;BMP280;51401;48.882;12.598;2023-07-20T04:37:15;86914.59;;;18.99
64904;BMP280;51401;48.882;12.598;2023-07-20T04:39:41;86751.31;;;18.83
64904;BMP280;51401;48.882;12.598;2023-07-20T04:42:06;86665.41;;;18.91
64904;BMP280;51401;48.882;12.598;2023-07-20T04:44:31;86752.38;;;18.93
64904;BMP280;51401;48.882;12.598;2023-07-20T04:46:57;86817.63;;;19.03
64904;BMP280;51401;48.882;12.598;2023-07-20T04:49:22;86932.22;;;19.01
64904;BMP280;51401;48.882;12.598;2023-07-20T04:51:47;87021.72;;;19.11
64904;BMP280;51401;48.882;12.598;2023-07-20T04:54:13;87145.97;;;19.20
64904;BMP280;51401;48.882;12.598;2023-07-20T04:56:38;87230.94;;;19.29
64904;BMP280;51401;48.882;12.598;2023-07-20T04:59:04;87187.59;;;19.36
64904;BMP280;51401;48.882;12.598;2023-07-20T05:01:29;87359.22;;;19.37
64904;BMP280;51401;48.882;12.598;2023-07-20T05:03:54;87443.69;;;19.41
64904;BMP280;51401;48.882;12.598;2023-07-20T05:06:20;87449.63;;;19.36
64904;BMP280;51401;48.882;12.598;2023-07-20T05:08:45;87404.22;;;19.51
64904;BMP280;51401;48.882;12.598;2023-07-20T05:11:11;87620.53;;;19.42
64904;BMP280;51401;48.882;12.598;2023-07-20T05:13:37;87717.94;;;19.64
64904;BMP280;51401;48.882;12.598;2023-07-20T05:16:03;87867.41;;;19.62
64904;BMP280;51401;48.882;12.598;2023-07-20T05:18:28;87838.63;;;19.52
64904;BMP280;51401;48.882;12.598;2023-07-20T05:20:54;87821.66;;;19.49
64904;BMP280;51401;48.882;12.598;2023-07-20T05:23:20;87873.94;;;19.63
64904;BMP280;51401;48.882;12.598;2023-07-20T05:25:46;88128.91;;;19.73
64904;BMP280;51401;48.882;12.598;2023-07-20T05:28:12;88174.84;;;19.65
64904;BMP280;51401;48.882;12.598;2023-07-20T05:30:37;88128.94;;;19.66
64904;BMP280;51401;48.882;12.598;2023-07-20T05:33:02;88142.72;;;19.60
64904;BMP280;51401;48.882;12.598;2023-07-20T05:35:28;87980.81;;;19.65
64904;BMP280;51401;48.882;12.598;2023-07-20T05:37:53;87978.91;;;19.51
64904;BMP280;51401;48.882;12.598;2023-07-20T05:40:18;87864.69;;;19.72
64904;BMP280;51401;48.882;12.598;2023-07-20T05:42:45;87974.81;;;19.78
64904;BMP280;51401;48.882;12.598;2023-07-20T05:45:12;88136.72;;;19.83
64904;BMP280;51401;48.882;12.598;2023-07-20T05:47:38;88200.31;;;19.98
64904;BMP280;51401;48.882;12.598;2023-07-20T05:50:03;88234.41;;;19.96
64904;BMP280;51401;48.882;12.598;2023-07-20T05:52:29;88273.72;;;20.03
64904;BMP280;51401;48.882;12.598;2023-07-20T05:54:54;88562.47;;;20.15
64904;BMP280;51401;48.882;12.598;2023-07-20T05:57:20;88763.22;;;20.16
64904;BMP280;51401;48.882;12.598;2023-07-20T05:59:45;88991.69;;;20.24
64904;BMP280;51401;48.882;12.598;2023-07-20T06:02:11;89362.56;;;20.24
64904;BMP280;51401;48.882;12.598;2023-07-20T06:04:36;89541.88;;;20.29
64904;BMP280;51401;48.882;12.598;2023-07-20T06:07:02;89732.06;;;20.51
64904;BMP280;51401;48.882;12.598;2023-07-20T06:09:27;90001.66;;;20.35
64904;BMP280;51401;48.882;12.598;2023-07-20T06:11:53;90013.00;;;20.70
64904;BMP280;51401;48.882;12.598;2023-07-20T06:14:18;90424.56;;;20.77
64904;BMP280;51401;48.882;12.598;2023-07-20T06:16:44;90490.75;;;20.93
64904;BMP280;51401;48.882;12.598;2023-07-20T06:19:09;90672.16;;;20.91
64904;BMP280;51401;48.882;12.598;2023-07-20T06:21:37;90970.94;;;20.98
64904;BMP280;51401;48.882;12.598;2023-07-20T06:24:02;91031.19;;;21.26
64904;BMP280;51401;48.882;12.598;2023-07-20T06:26:28;91383.00;;;21.06
64904;BMP280;51401;48.882;12.598;2023-07-20T06:28:55;91432.44;;;21.23
64904;BMP280;51401;48.882;12.598;2023-07-20T06:31:20;91569.91;;;21.08
64904;BMP280;51401;48.882;12.598;2023-07-20T06:33:46;91631.53;;;21.04
64904;BMP280;51401;48.882;12.598;2023-07-20T06:36:11;91610.91;;;21.27
64904;BMP280;51401;48.882;12.598;2023-07-20T06:38:36;91637.03;;;21.23
64904;BMP280;51401;48.882;12.598;2023-07-20T06:41:02;91650.97;;;21.25
64904;BMP280;51401;48.882;12.598;2023-07-20T06:43:27;91736.28;;;21.20
64904;BMP280;51401;48.882;12.598;2023-07-20T06:45:53;91614.31;;;21.29
64904;BMP280;51401;48.882;12.598;2023-07-20T06:48:18;91778.00;;;21.26
64904;BMP280;51401;48.882;12.598;2023-07-20T06:50:44;91659.72;;;21.43
64904;BMP280;51401;48.882;12.598;2023-07-20T06:53:09;91744.59;;;21.28
64904;BMP280;51401;48.882;12.598;2023-07-20T06:55:34;91616.53;;;21.63
64904;BMP280;51401;48.882;12.598;2023-07-20T06:57:59;91792.34;;;21.36
64904;BMP280;51401;48.882;12.598;2023-07-20T07:00:25;91644.91;;;21.36
64904;BMP280;51401;48.882;12.598;2023-07-20T07:02:50;91775.94;;;21.64
64904;BMP280;51401;48.882;12.598;2023-07-20T07:05:16;91719.06;;;21.72
64904;BMP280;51401;48.882;12.598;2023-07-20T07:07:41;91682.03;;;21.55
64904;BMP280;51401;48.882;12.598;2023-07-20T07:10:07;91935.94;;;21.90
64904;BMP280;51401;48.882;12.598;2023-07-20T07:12:33;91992.25;;;22.36
64904;BMP280;51401;48.882;12.598;2023-07-20T07:14:59;91986.25;;;23.19
64904;BMP280;51401;48.882;12.598;2023-07-20T07:17:25;92352.38;;;23.92
64904;BMP280;51401;48.882;12.598;2023-07-20T07:19:52;92562.47;;;24.15
64904;BMP280;51401;48.882;12.598;2023-07-20T07:22:20;92565.91;;;24.58
64904;BMP280;51401;48.882;12.598;2023-07-20T07:24:46;92942.63;;;24.96
64904;BMP280;51401;48.882;12.598;2023-07-20T07:27:11;94786.88;;;24.46
64904;BMP280;51401;48.882;12.598;2023-07-20T07:29:37;95976.34;;;24.90
64904;BMP280;51401;48.882;12.598;2023-07-20T07:32:03;96348.53;;;24.92
64904;BMP280;51401;48.882;12.598;2023-07-20T07:34:28;96713.28;;;25.74
64904;BMP280;51401;48.882;12.598;2023-07-20T07:36:53;96815.00;;;25.69
64904;BMP280;51401;48.882;12.598;2023-07-20T07:39:19;96916.88;;;25.95
64904;BMP280;51401;48.882;12.598;2023-07-20T07:41:44;96860.44;;;25.37
64904;BMP280;51401;48.882;12.598;2023-07-20T07:44:10;96977.16;;;25.82
64904;BMP280;51401;48.882;12.598;2023-07-20T07:46:35;96989.31;;;26.01
64904;BMP280;51401;48.882;12.598;2023-07-20T07:49:00;96722.41;;;24.40
64904;BMP280;51401;48.882;12.598;2023-07-20T07:51:26;96556.13;;;24.16
64904;BMP280;51401;48.882;12.598;2023-07-20T07:53:52;96626.47;;;24.41
64904;BMP280;51401;48.882;12.598;2023-07-20T07:56:17;96726.47;;;24.46
64904;BMP280;51401;48.882;12.598;2023-07-20T07:58:46;96815.22;;;24.79
64904;BMP280;51401;48.882;12.598;2023-07-20T08:01:11;96938.06;;;25.77
64904;BMP280;51401;48.882;12.598;2023-07-20T08:03:37;97107.56;;;25.23
64904;BMP280;51401;48.882;12.598;2023-07-20T08:06:02;97113.47;;;24.89
64904;BMP280;51401;48.882;12.598;2023-07-20T08:08:30;97209.47;;;25.92
64904;BMP280;51401;48.882;12.598;2023-07-20T08:10:55;97140.19;;;25.18
64904;BMP280;51401;48.882;12.598;2023-07-20T08:13:21;97195.34;;;25.63
64904;BMP280;51401;48.882;12.598;2023-07-20T08:15:49;97273.66;;;26.57
64904;BMP280;51401;48.882;12.598;2023-07-20T08:20:44;97325.19;;;26.94
64904;BMP280;51401;48.882;12.598;2023-07-20T08:23:09;97316.03;;;26.84
64904;BMP280;51401;48.882;12.598;2023-07-20T08:25:36;97360.84;;;27.14
64904;BMP280;51401;48.882;12.598;2023-07-20T08:28:04;97357.31;;;26.00
64904;BMP280;51401;48.882;12.598;2023-07-20T08:30:39;97267.78;;;24.82
64904;BMP280;51401;48.882;12.598;2023-07-20T08:33:04;97203.91;;;24.75
64904;BMP280;51401;48.882;12.598;2023-07-20T08:35:30;97160.22;;;24.38
64904;BMP280;51401;48.882;12.598;2023-07-20T08:37:55;97309.31;;;25.39
64904;BMP280;51401;48.882;12.598;2023-07-20T08:40:20;97344.31;;;26.53
64904;BMP280;51401;48.882;12.598;2023-07-20T08:42:46;97346.16;;;26.13
64904;BMP280;51401;48.882;12.598;2023-07-20T08:45:12;97335.94;;;26.27
64904;BMP280;51401;48.882;12.598;2023-07-20T08:47:38;97359.69;;;27.10
64904;BMP280;51401;48.882;12.598;2023-07-20T08:50:07;97369.88;;;26.00
64904;BMP280;51401;48.882;12.598;2023-07-20T08:52:34;97361.50;;;26.46
64904;BMP280;51401;48.882;12.598;2023-07-20T08:54:59;97395.81;;;26.50
64904;BMP280;51401;48.882;12.598;2023-07-20T08:57:28;97434.47;;;27.46
64904;BMP280;51401;48.882;12.598;2023-07-20T08:59:54;97401.22;;;27.24
64904;BMP280;51401;48.882;12.598;2023-07-20T09:02:23;97420.81;;;28.08
64904;BMP280;51401;48.882;12.598;2023-07-20T09:04:50;97451.72;;;28.21
64904;BMP280;51401;48.882;12.598;2023-07-20T09:07:16;97472.84;;;27.27
64904;BMP280;51401;48.882;12.598;2023-07-20T09:09:41;97469.16;;;27.36
64904;BMP280;51401;48.882;12.598;2023-07-20T09:12:16;97508.28;;;28.61
64904;BMP280;51401;48.882;12.598;2023-07-20T09:14:44;97482.47;;;27.75
64904;BMP280;51401;48.882;12.598;2023-07-20T09:17:13;97463.06;;;29.05
64904;BMP280;51401;48.882;12.598;2023-07-20T09:19:46;97521.50;;;26.72
64904;BMP280;51401;48.882;12.598;2023-07-20T09:22:11;97529.66;;;27.46
64904;BMP280;51401;48.882;12.598;2023-07-20T09:24:36;97516.53;;;28.63
64904;BMP280;51401;48.882;12.598;2023-07-20T09:27:02;97511.94;;;29.18
64904;BMP280;51401;48.882;12.598;2023-07-20T09:29:30;97490.50;;;28.69
64904;BMP280;51401;48.882;12.598;2023-07-20T09:34:25;97466.47;;;26.24
64904;BMP280;51401;48.882;12.598;2023-07-20T09:36:51;97467.66;;;27.06
64904;BMP280;51401;48.882;12.598;2023-07-20T09:39:17;97503.22;;;28.11
64904;BMP280;51401;48.882;12.598;2023-07-20T09:41:42;97497.25;;;28.00
64904;BMP280;51401;48.882;12.598;2023-07-20T09:44:08;97438.94;;;26.11
64904;BMP280;51401;48.882;12.598;2023-07-20T09:46:45;97392.38;;;25.88
64904;BMP280;51401;48.882;12.598;2023-07-20T09:49:11;97423.16;;;26.45
64904;BMP280;51401;48.882;12.598;2023-07-20T09:51:37;97426.94;;;27.16
64904;BMP280;51401;48.882;12.598;2023-07-20T09:54:03;97460.19;;;27.38
64904;BMP280;51401;48.882;12.598;2023-07-20T09:56:30;97501.69;;;27.63
64904;BMP280;51401;48.882;12.598;2023-07-20T09:58:56;97500.41;;;29.23
64904;BMP280;51401;48.882;12.598;2023-07-20T10:01:23;97531.25;;;28.70
64904;BMP280;51401;48.882;12.598;2023-07-20T10:03:53;97525.66;;;29.89
64904;BMP280;51401;48.882;12.598;2023-07-20T10:06:23;97541.41;;;30.05
64904;BMP280;51401;48.882;12.598;2023-07-20T10:08:52;97535.31;;;29.79
64904;BMP280;51401;48.882;12.598;2023-07-20T10:11:19;97525.16;;;30.03
64904;BMP280;51401;48.882;12.598;2023-07-20T10:13:46;97548.03;;;29.25
64904;BMP280;51401;48.882;12.598;2023-07-20T10:16:26;97558.94;;;30.06
64904;BMP280;51401;48.882;12.598;2023-07-20T10:19:03;97556.38;;;30.39
64904;BMP280;51401;48.882;12.598;2023-07-20T10:21:30;97561.72;;;28.98
64904;BMP280;51401;48.882;12.598;2023-07-20T10:23:57;97553.59;;;28.43
64904;BMP280;51401;48.882;12.598;2023-07-20T10:26:22;97553.63;;;28.85
64904;BMP280;51401;48.882;12.598;2023-07-20T10:28:48;97558.94;;;30.06
64904;BMP280;51401;48.882;12.598;2023-07-20T10:31:14;97565.72;;;30.96
64904;BMP280;51401;48.882;12.598;2023-07-20T10:33:41;97578.53;;;30.65
64904;BMP280;51401;48.882;12.598;2023-07-20T10:36:06;97593.78;;;29.88
64904;BMP280;51401;48.882;12.598;2023-07-20T10:41:20;97564.13;;;28.59
64904;BMP280;51401;48.882;12.598;2023-07-20T10:43:46;97558.59;;;27.65
64904;BMP280;51401;48.882;12.598;2023-07-20T10:46:12;97570.47;;;27.14
64904;BMP280;51401;48.882;12.598;2023-07-20T10:49:00;97565.50;;;28.84
64904;BMP280;51401;48.882;12.598;2023-07-20T10:51:26;97563.47;;;29.80
64904;BMP280;51401;48.882;12.598;2023-07-20T10:53:51;97566.38;;;30.51
64904;BMP280;51401;48.882;12.598;2023-07-20T10:56:22;97594.38;;;29.94
64904;BMP280;51401;48.882;12.598;2023-07-20T10:58:48;97582.75;;;29.92
64904;BMP280;51401;48.882;12.598;2023-07-20T11:01:16;97560.69;;;28.59
64904;BMP280;51401;48.882;12.598;2023-07-20T11:03:41;97565.97;;;28.17
64904;BMP280;51401;48.882;12.598;2023-07-20T11:06:36;97568.53;;;29.35
64904;BMP280;51401;48.882;12.598;2023-07-20T11:09:11;97569.03;;;29.52
64904;BMP280;51401;48.882;12.598;2023-07-20T11:11:40;97568.25;;;29.20
64904;BMP280;51401;48.882;12.598;2023-07-20T11:14:13;97580.97;;;29.14
64904;BMP280;51401;48.882;12.598;2023-07-20T11:16:46;97582.53;;;29.05
64904;BMP280;51401;48.882;12.598;2023-07-20T11:19:25;97565.31;;;30.16
64904;BMP280;51401;48.882;12.598;2023-07-20T11:21:55;97563.91;;;28.99
64904;BMP280;51401;48.882;12.598;2023-07-20T11:24:21;97554.97;;;28.97
64904;BMP280;51401;48.882;12.598;2023-07-20T11:26:47;97549.25;;;27.83
64904;BMP280;51401;48.882;12.598;2023-07-20T11:29:13;97532.19;;;28.25
64904;BMP280;51401;48.882;12.598;2023-07-20T11:31:40;97535.81;;;28.93
64904;BMP280;51401;48.882;12.598;2023-07-20T11:34:09;97535.06;;;30.08
64904;BMP280;51401;48.882;12.598;2023-07-20T11:36:35;97541.88;;;30.48
64904;BMP280;51401;48.882;12.598;2023-07-20T11:39:00;97543.91;;;30.80
64904;BMP280;51401;48.882;12.598;2023-07-20T11:41:26;97553.28;;;30.48
64904;BMP280;51401;48.882;12.598;2023-07-20T11:43:52;97550.22;;;30.57
64904;BMP280;51401;48.882;12.598;2023-07-20T11:46:18;97561.47;;;30.68
64904;BMP280;51401;48.882;12.598;2023-07-20T11:48:44;97549.41;;;31.40
64904;BMP280;51401;48.882;12.598;2023-07-20T11:51:16;97545.75;;;32.18
64904;BMP280;51401;48.882;12.598;2023-07-20T11:53:44;97546.47;;;32.18
64904;BMP280;51401;48.882;12.598;2023-07-20T11:56:11;97540.44;;;31.78
64904;BMP280;51401;48.882;12.598;2023-07-20T11:58:41;97552.69;;;30.29
64904;BMP280;51401;48.882;12.598;2023-07-20T12:01:07;97541.03;;;29.71
64904;BMP280;51401;48.882;12.598;2023-07-20T12:03:32;97525.84;;;31.26
64904;BMP280;51401;48.882;12.598;2023-07-20T12:06:06;97549.47;;;31.47
64904;BMP280;51401;48.882;12.598;2023-07-20T12:08:32;97549.88;;;30.86
64904;BMP280;51401;48.882;12.598;2023-07-20T12:10:58;97549.78;;;30.53
64904;BMP280;51401;48.882;12.598;2023-07-20T12:13:23;97539.97;;;30.94
64904;BMP280;51401;48.882;12.598;2023-07-20T12:15:53;97532.91;;;30.71
64904;BMP280;51401;48.882;12.598;2023-07-20T12:18:22;97534.41;;;30.79
64904;BMP280;51401;48.882;12.598;2023-07-20T12:20:48;97551.03;;;29.34
64904;BMP280;51401;48.882;12.598;2023-07-20T12:23:13;97540.88;;;29.32
64904;BMP280;51401;48.882;12.598;2023-07-20T12:25:46;97523.00;;;30.78
64904;BMP280;51401;48.882;12.598;2023-07-20T12:28:13;97521.44;;;30.83
64904;BMP280;51401;48.882;12.598;2023-07-20T12:30:40;97522.22;;;30.45
64904;BMP280;51401;48.882;12.598;2023-07-20T12:33:06;97523.94;;;30.17
64904;BMP280;51401;48.882;12.598;2023-07-20T12:35:32;97530.63;;;29.67
64904;BMP280;51401;48.882;12.598;2023-07-20T12:37:57;97508.91;;;30.52
64904;BMP280;51401;48.882;12.598;2023-07-20T12:40:23;97522.88;;;30.71
64904;BMP280;51401;48.882;12.598;2023-07-20T12:42:48;97518.59;;;31.34
64904;BMP280;51401;48.882;12.598;2023-07-20T12:45:14;97516.78;;;31.69
64904;BMP280;51401;48.882;12.598;2023-07-20T12:47:40;97519.75;;;31.86
64904;BMP280;51401;48.882;12.598;2023-07-20T12:50:06;97514.19;;;32.38
64904;BMP280;51401;48.882;12.598;2023-07-20T12:52:35;97508.59;;;32.29
64904;BMP280;51401;48.882;12.598;2023-07-20T12:55:01;97507.28;;;32.65
64904;BMP280;51401;48.882;12.598;2023-07-20T12:57:26;97503.28;;;32.79
64904;BMP280;51401;48.882;12.598;2023-07-20T12:59:51;97512.38;;;31.79
64904;BMP280;51401;48.882;12.598;2023-07-20T13:02:17;97513.19;;;33.13
64904;BMP280;51401;48.882;12.598;2023-07-20T13:04:42;97520.34;;;31.31
64904;BMP280;51401;48.882;12.598;2023-07-20T13:07:10;97507.09;;;31.66
64904;BMP280;51401;48.882;12.598;2023-07-20T13:09:36;97512.41;;;30.73
64904;BMP280;51401;48.882;12.598;2023-07-20T13:12:01;97511.94;;;29.18
64904;BMP280;51401;48.882;12.598;2023-07-20T13:14:26;97500.00;;;28.41
64904;BMP280;51401;48.882;12.598;2023-07-20T13:16:52;97501.25;;;29.00
64904;BMP280;51401;48.882;12.598;2023-07-20T13:19:17;97487.91;;;30.18
64904;BMP280;51401;48.882;12.598;2023-07-20T13:21:42;97505.03;;;28.68
64904;BMP280;51401;48.882;12.598;2023-07-20T13:24:08;97503.63;;;28.20
64904;BMP280;51401;48.882;12.598;2023-07-20T13:26:33;97490.97;;;29.84
64904;BMP280;51401;48.882;12.598;2023-07-20T13:28:59;97511.63;;;30.85
64904;BMP280;51401;48.882;12.598;2023-07-20T13:31:24;97495.41;;;31.56
64904;BMP280;51401;48.882;12.598;2023-07-20T13:33:50;97506.13;;;31.56
64904;BMP280;51401;48.882;12.598;2023-07-20T13:36:15;97503.28;;;32.79
64904;BMP280;51401;48.882;12.598;2023-07-20T13:38:40;97493.84;;;33.51
64904;BMP280;51401;48.882;12.598;2023-07-20T13:41:05;97510.69;;;32.58
64904;BMP280;51401;48.882;12.598;2023-07-20T13:43:31;97496.25;;;32.76
64904;BMP280;51401;48.882;12.598;2023-07-20T13:45:56;97502.50;;;32.29
64904;BMP280;51401;48.882;12.598;2023-07-20T13:48:21;97504.47;;;30.80
64904;BMP280;51401;48.882;12.598;2023-07-20T13:50:48;97494.00;;;30.06
64904;BMP280;51401;48.882;12.598;2023-07-20T13:53:13;97494.75;;;29.76
64904;BMP280;51401;48.882;12.598;2023-07-20T13:55:40;97488.13;;;29.95
64904;BMP280;51401;48.882;12.598;2023-07-20T13:58:05;97490.81;;;30.33
64904;BMP280;51401;48.882;12.598;2023-07-20T14:00:31;97472.16;;;30.98
64904;BMP280;51401;48.882;12.598;2023-07-20T14:02:58;97482.00;;;31.56